Thursday, February 22, 2018, 5:42 PM EST
Back to Local

KBML, Berlin Municipal Airport

Location: Milan, NH, United States Lat: 44.583
Local Time: 5:42 PM EST (22:42 GMT) Lon: -71.183
Time Zone: US/Eastern Elev: 1158 ft

Show me the last for .
Show Decoded

2018-02-22 16:52 METAR KBML 222152Z AUTO 35005KT 10SM BKN110 M01/M12 A3060 RMK AO2 SLP380
                 T10061117 =
2018-02-22 15:52 METAR KBML 222052Z AUTO VRB03KT 10SM OVC100 00/M11 A3060 RMK AO2 SLP379
                 T00001111 53002 =
2018-02-22 14:52 METAR KBML 221952Z AUTO 32003KT 10SM BKN110 00/M12 A3059 RMK AO2 SLP374
                 T00001117 =
2018-02-22 13:52 METAR KBML 221852Z AUTO 32005KT 10SM BKN110 M01/M12 A3059 RMK AO2 SLP375
                 T10061117 =
2018-02-22 12:52 METAR KBML 221752Z AUTO 34005KT 10SM BKN120 M01/M12 A3059 RMK AO2 SLP375
                 T10061117 11006 21039 58014 =
2018-02-22 11:52 METAR KBML 221652Z AUTO 00000KT 10SM FEW120 M01/M12 A3062 RMK AO2 SLP384
                 T10111117 =
2018-02-22 10:52 METAR KBML 221552Z AUTO 35005KT 10SM BKN120 M02/M11 A3062 RMK AO2 SLP386
                 T10171106 =
2018-02-22 09:52 METAR KBML 221452Z AUTO 01003KT 10SM OVC110 M02/M12 A3063 RMK AO2 SLP390
                 T10221117 50011 =
2018-02-22 08:52 METAR KBML 221352Z AUTO 36004KT 10SM SCT120 M03/M11 A3064 RMK AO2 SLP391
                 T10331111 =
2018-02-22 07:52 METAR KBML 221252Z AUTO 33005KT 10SM CLR M04/M12 A3063 RMK AO2 SLP386 T10391122
                 =
2018-02-22 06:52 METAR KBML 221152Z AUTO 36007KT 10SM CLR M03/M11 A3060 RMK AO2 SLP376 T10331106
                 10000 21033 51017 =
2018-02-22 05:52 METAR KBML 221052Z AUTO 32006KT 10SM CLR M03/M10 A3059 RMK AO2 SLP370 T10281100
                 =
2018-02-22 04:52 METAR KBML 220952Z AUTO 34005KT 10SM FEW120 M02/M09 A3057 RMK AO2 SLP363
                 T10221089 =
2018-02-22 03:52 METAR KBML 220852Z AUTO 33006KT 10SM CLR M02/M09 A3055 RMK AO2 SLP356 T10221089
                 51021 =
2018-02-22 02:52 METAR KBML 220752Z AUTO 35007KT 10SM CLR M02/M08 A3053 RMK AO2 SLP346 T10171083
                 =
2018-02-22 01:52 METAR KBML 220652Z AUTO 34006KT 10SM CLR M01/M08 A3051 RMK AO2 SLP340 T10061078
                 =
2018-02-22 00:52 METAR KBML 220552Z AUTO 32007KT 10SM FEW035 00/M06 A3048 RMK AO2 SLP329
                 T00001056 10083 20000 51038 =
2018-02-21 23:52 METAR KBML 220452Z AUTO 34007KT 10SM OVC030 02/M05 A3045 RMK AO2 SLP319
                 T00171050 402060000 =
2018-02-21 22:52 METAR KBML 220352Z AUTO VRB04KT 10SM SCT031 02/M03 A3041 RMK AO2 SLP307
                 T00221033 =
2018-02-21 22:25 METAR KBML 220325Z AUTO VRB04KT 10SM BKN031 03/M02 A3040 RMK AO2 T00281022 =
2018-02-21 21:52 METAR KBML 220252Z AUTO 30003KT 10SM OVC026 03/M02 A3037 RMK AO2 SLP292
                 T00331017 51037 =
2018-02-21 21:11 METAR KBML 220211Z AUTO VRB05KT 10SM BKN029 OVC034 04/M01 A3035 RMK AO2
                 T00441006 =
2018-02-21 20:52 METAR KBML 220152Z AUTO 30008KT 10SM BKN031 OVC085 05/00 A3034 RMK AO2 SLP285
                 T00500000 =
2018-02-21 19:52 METAR KBML 220052Z AUTO 28007KT 240V310 10SM OVC080 06/01 A3029 RMK AO2 SLP270
                 T00610006 =
2018-02-21 18:52 METAR KBML 212352Z AUTO 26008G17KT 230V310 10SM FEW030 OVC065 08/02 A3025 RMK
                 AO2 SLP256 60000 T00830022 10206 20083 51051 =
2018-02-21 17:52 METAR KBML 212252Z AUTO 31007G17KT 280V350 10SM FEW030 OVC049 09/03 A3023 RMK
                 AO2 SLP246 T00940033 =

Support USWX by starting your Amazon purchase here.